sensor_id;sensor_type;location;lat;lon;timestamp;pressure;altitude;pressure_sealevel;temperature;humidity
56992;BME280;42885;49.754;18.636;2023-01-15T00:00:25;97764.64;;;8.35;87.08
56992;BME280;42885;49.754;18.636;2023-01-15T00:02:58;97766.86;;;8.48;85.52
56992;BME280;42885;49.754;18.636;2023-01-15T00:05:31;97753.95;;;8.54;85.73
56992;BME280;42885;49.754;18.636;2023-01-15T00:08:03;97750.88;;;8.54;85.65
56992;BME280;42885;49.754;18.636;2023-01-15T00:10:35;97755.87;;;8.50;85.72
56992;BME280;42885;49.754;18.636;2023-01-15T00:13:06;97737.61;;;8.50;85.40
56992;BME280;42885;49.754;18.636;2023-01-15T00:15:37;97750.75;;;8.42;87.29
56992;BME280;42885;49.754;18.636;2023-01-15T00:18:08;97753.09;;;8.46;87.15
56992;BME280;42885;49.754;18.636;2023-01-15T00:20:39;97727.38;;;8.47;87.09
56992;BME280;42885;49.754;18.636;2023-01-15T00:23:10;97751.25;;;8.56;86.07
56992;BME280;42885;49.754;18.636;2023-01-15T00:25:43;97733.93;;;8.54;85.80
56992;BME280;42885;49.754;18.636;2023-01-15T00:28:31;97736.17;;;8.61;85.12
56992;BME280;42885;49.754;18.636;2023-01-15T00:31:02;97718.82;;;8.67;83.82
56992;BME280;42885;49.754;18.636;2023-01-15T00:33:33;97702.27;;;8.61;85.16
56992;BME280;42885;49.754;18.636;2023-01-15T00:36:04;97704.76;;;8.62;84.57
56992;BME280;42885;49.754;18.636;2023-01-15T00:38:35;97698.61;;;8.49;86.41
56992;BME280;42885;49.754;18.636;2023-01-15T00:41:06;97712.41;;;8.51;86.95
56992;BME280;42885;49.754;18.636;2023-01-15T00:43:37;97694.89;;;8.53;87.34
56992;BME280;42885;49.754;18.636;2023-01-15T00:46:08;97700.39;;;8.63;85.78
56992;BME280;42885;49.754;18.636;2023-01-15T00:48:39;97701.25;;;8.56;86.73
56992;BME280;42885;49.754;18.636;2023-01-15T00:51:10;97699.09;;;8.56;86.65
56992;BME280;42885;49.754;18.636;2023-01-15T00:53:42;97699.09;;;8.56;86.65
56992;BME280;42885;49.754;18.636;2023-01-15T00:56:13;97713.52;;;8.54;86.83
56992;BME280;42885;49.754;18.636;2023-01-15T00:58:44;97721.34;;;8.47;88.61
56992;BME280;42885;49.754;18.636;2023-01-15T01:01:17;97700.23;;;8.51;87.61
56992;BME280;42885;49.754;18.636;2023-01-15T01:03:48;97690.30;;;8.42;88.57
56992;BME280;42885;49.754;18.636;2023-01-15T01:06:23;97683.61;;;8.45;88.69
56992;BME280;42885;49.754;18.636;2023-01-15T01:08:55;97697.30;;;8.42;89.12
56992;BME280;42885;49.754;18.636;2023-01-15T01:11:26;97687.32;;;8.41;89.24
56992;BME280;42885;49.754;18.636;2023-01-15T01:13:59;97685.56;;;8.42;88.79
56992;BME280;42885;49.754;18.636;2023-01-15T01:16:35;97674.20;;;8.35;90.39
56992;BME280;42885;49.754;18.636;2023-01-15T01:19:10;97668.33;;;8.39;89.83
56992;BME280;42885;49.754;18.636;2023-01-15T01:21:43;97659.41;;;8.36;89.77
56992;BME280;42885;49.754;18.636;2023-01-15T01:24:24;97655.13;;;8.35;90.20
56992;BME280;42885;49.754;18.636;2023-01-15T01:26:49;97661.53;;;8.36;91.07
56992;BME280;42885;49.754;18.636;2023-01-15T01:29:21;97659.01;;;8.42;89.91
56992;BME280;42885;49.754;18.636;2023-01-15T01:31:52;97668.91;;;8.30;90.99
56992;BME280;42885;49.754;18.636;2023-01-15T01:34:23;97689.10;;;8.26;91.11
56992;BME280;42885;49.754;18.636;2023-01-15T01:36:54;97680.55;;;8.31;89.95
56992;BME280;42885;49.754;18.636;2023-01-15T01:39:25;97674.03;;;8.24;90.96
56992;BME280;42885;49.754;18.636;2023-01-15T01:41:58;97665.19;;;8.26;90.94
56992;BME280;42885;49.754;18.636;2023-01-15T01:45:17;97674.11;;;8.22;91.41
56992;BME280;42885;49.754;18.636;2023-01-15T01:48:34;97674.77;;;8.26;91.27
56992;BME280;42885;49.754;18.636;2023-01-15T01:51:33;97667.23;;;8.29;90.39
56992;BME280;42885;49.754;18.636;2023-01-15T01:54:24;97660.52;;;8.39;88.73
56992;BME280;42885;49.754;18.636;2023-01-15T01:56:57;97674.12;;;8.44;87.50
56992;BME280;42885;49.754;18.636;2023-01-15T01:59:36;97660.42;;;8.48;86.78
56992;BME280;42885;49.754;18.636;2023-01-15T02:02:21;97666.86;;;8.57;85.43
56992;BME280;42885;49.754;18.636;2023-01-15T02:04:52;97661.99;;;8.72;83.00
56992;BME280;42885;49.754;18.636;2023-01-15T02:07:26;97653.41;;;8.85;81.01
56992;BME280;42885;49.754;18.636;2023-01-15T02:10:02;97654.16;;;8.79;82.07
56992;BME280;42885;49.754;18.636;2023-01-15T02:12:36;97648.95;;;8.72;82.56
56992;BME280;42885;49.754;18.636;2023-01-15T02:15:27;97637.75;;;8.85;80.86
56992;BME280;42885;49.754;18.636;2023-01-15T02:18:14;97634.94;;;9.15;77.52
56992;BME280;42885;49.754;18.636;2023-01-15T02:24:09;97625.77;;;9.76;69.09
56992;BME280;42885;49.754;18.636;2023-01-15T02:27:08;97614.63;;;10.05;66.25
56992;BME280;42885;49.754;18.636;2023-01-15T02:29:54;97604.17;;;9.93;68.07
56992;BME280;42885;49.754;18.636;2023-01-15T02:35:21;97607.10;;;10.01;66.99
56992;BME280;42885;49.754;18.636;2023-01-15T02:37:54;97590.72;;;10.36;64.06
56992;BME280;42885;49.754;18.636;2023-01-15T02:40:27;97599.91;;;10.23;64.59
56992;BME280;42885;49.754;18.636;2023-01-15T02:42:59;97600.85;;;10.22;65.19
56992;BME280;42885;49.754;18.636;2023-01-15T02:45:33;97607.78;;;10.29;66.24
56992;BME280;42885;49.754;18.636;2023-01-15T02:48:08;97611.91;;;10.39;67.02
56992;BME280;42885;49.754;18.636;2023-01-15T02:50:47;97601.64;;;10.49;67.47
56992;BME280;42885;49.754;18.636;2023-01-15T02:53:21;97594.22;;;10.55;69.31
56992;BME280;42885;49.754;18.636;2023-01-15T02:55:55;97606.73;;;10.63;70.38
56992;BME280;42885;49.754;18.636;2023-01-15T02:58:31;97594.32;;;10.78;70.93
56992;BME280;42885;49.754;18.636;2023-01-15T03:09:09;97602.33;;;10.82;73.67
56992;BME280;42885;49.754;18.636;2023-01-15T03:23:35;97608.91;;;9.54;88.94
56992;BME280;42885;49.754;18.636;2023-01-15T03:26:33;97613.41;;;9.12;90.25
56992;BME280;42885;49.754;18.636;2023-01-15T03:33:33;97589.43;;;8.72;92.92
56992;BME280;42885;49.754;18.636;2023-01-15T03:36:32;97595.33;;;8.61;93.63
56992;BME280;42885;49.754;18.636;2023-01-15T03:39:04;97581.06;;;8.59;93.68
56992;BME280;42885;49.754;18.636;2023-01-15T03:42:07;97580.34;;;8.57;93.66
56992;BME280;42885;49.754;18.636;2023-01-15T03:44:39;97567.59;;;8.52;93.53
56992;BME280;42885;49.754;18.636;2023-01-15T03:47:28;97560.41;;;8.56;93.51
56992;BME280;42885;49.754;18.636;2023-01-15T03:53:04;97547.82;;;8.56;93.18
56992;BME280;42885;49.754;18.636;2023-01-15T03:58:38;97540.70;;;8.65;92.09
56992;BME280;42885;49.754;18.636;2023-01-15T04:01:08;97544.81;;;8.69;91.18
56992;BME280;42885;49.754;18.636;2023-01-15T04:03:42;97542.38;;;8.66;91.08
56992;BME280;42885;49.754;18.636;2023-01-15T04:06:14;97544.98;;;8.66;91.57
56992;BME280;42885;49.754;18.636;2023-01-15T04:08:46;97523.06;;;8.76;90.92
56992;BME280;42885;49.754;18.636;2023-01-15T04:11:28;97521.03;;;8.74;91.51
56992;BME280;42885;49.754;18.636;2023-01-15T04:14:00;97526.83;;;8.72;91.33
56992;BME280;42885;49.754;18.636;2023-01-15T04:16:42;97499.58;;;8.76;91.18
56992;BME280;42885;49.754;18.636;2023-01-15T04:19:30;97505.47;;;8.72;91.93
56992;BME280;42885;49.754;18.636;2023-01-15T04:22:39;97504.98;;;8.60;92.95
56992;BME280;42885;49.754;18.636;2023-01-15T04:25:10;97501.06;;;8.60;92.42
56992;BME280;42885;49.754;18.636;2023-01-15T04:27:46;97465.30;;;8.54;93.01
56992;BME280;42885;49.754;18.636;2023-01-15T04:30:29;97478.80;;;8.54;92.96
56992;BME280;42885;49.754;18.636;2023-01-15T04:33:05;97473.04;;;8.56;92.72
56992;BME280;42885;49.754;18.636;2023-01-15T04:35:52;97466.16;;;8.55;92.46
56992;BME280;42885;49.754;18.636;2023-01-15T04:38:24;97460.09;;;8.54;92.63
56992;BME280;42885;49.754;18.636;2023-01-15T04:41:47;97463.36;;;8.51;92.62
56992;BME280;42885;49.754;18.636;2023-01-15T04:45:37;97457.84;;;8.56;91.31
56992;BME280;42885;49.754;18.636;2023-01-15T04:48:10;97443.20;;;8.60;91.32
56992;BME280;42885;49.754;18.636;2023-01-15T04:50:42;97443.40;;;8.77;90.43
56992;BME280;42885;49.754;18.636;2023-01-15T04:53:36;97447.72;;;8.51;91.76
56992;BME280;42885;49.754;18.636;2023-01-15T04:56:09;97432.04;;;8.58;90.29
56992;BME280;42885;49.754;18.636;2023-01-15T04:58:42;97435.04;;;8.52;90.69
56992;BME280;42885;49.754;18.636;2023-01-15T05:01:15;97445.80;;;8.60;89.85
56992;BME280;42885;49.754;18.636;2023-01-15T05:03:57;97439.37;;;8.59;89.18
56992;BME280;42885;49.754;18.636;2023-01-15T05:10:17;97442.56;;;8.57;89.77
56992;BME280;42885;49.754;18.636;2023-01-15T05:13:36;97447.33;;;8.57;88.38
56992;BME280;42885;49.754;18.636;2023-01-15T05:16:22;97445.35;;;8.61;87.67
56992;BME280;42885;49.754;18.636;2023-01-15T05:19:02;97436.41;;;8.58;87.32
56992;BME280;42885;49.754;18.636;2023-01-15T05:21:43;97414.78;;;8.63;86.78
56992;BME280;42885;49.754;18.636;2023-01-15T05:25:14;97431.77;;;8.56;86.76
56992;BME280;42885;49.754;18.636;2023-01-15T05:28:30;97410.50;;;8.62;86.30
56992;BME280;42885;49.754;18.636;2023-01-15T05:31:41;97432.45;;;8.65;85.56
56992;BME280;42885;49.754;18.636;2023-01-15T05:34:14;97412.71;;;8.68;84.50
56992;BME280;42885;49.754;18.636;2023-01-15T05:36:48;97420.62;;;8.66;84.76
56992;BME280;42885;49.754;18.636;2023-01-15T05:39:19;97423.18;;;8.61;84.64
56992;BME280;42885;49.754;18.636;2023-01-15T05:41:55;97401.52;;;8.66;83.91
56992;BME280;42885;49.754;18.636;2023-01-15T05:44:29;97409.20;;;8.62;83.84
56992;BME280;42885;49.754;18.636;2023-01-15T05:47:02;97398.61;;;8.71;83.23
56992;BME280;42885;49.754;18.636;2023-01-15T05:53:48;97388.03;;;8.79;81.53
56992;BME280;42885;49.754;18.636;2023-01-15T06:00:32;97390.73;;;8.78;80.57
56992;BME280;42885;49.754;18.636;2023-01-15T06:03:25;97384.39;;;8.82;80.55
56992;BME280;42885;49.754;18.636;2023-01-15T06:06:13;97377.23;;;8.78;80.64
56992;BME280;42885;49.754;18.636;2023-01-15T06:08:46;97366.13;;;8.82;79.73
56992;BME280;42885;49.754;18.636;2023-01-15T06:11:27;97386.95;;;8.76;79.87
56992;BME280;42885;49.754;18.636;2023-01-15T06:17:56;97383.95;;;8.75;80.25
56992;BME280;42885;49.754;18.636;2023-01-15T06:20:55;97378.27;;;8.76;79.89
56992;BME280;42885;49.754;18.636;2023-01-15T06:23:26;97365.55;;;8.84;79.01
56992;BME280;42885;49.754;18.636;2023-01-15T06:26:09;97369.23;;;8.87;78.46
56992;BME280;42885;49.754;18.636;2023-01-15T06:28:40;97366.08;;;8.89;78.59
56992;BME280;42885;49.754;18.636;2023-01-15T06:31:48;97371.61;;;8.98;77.35
56992;BME280;42885;49.754;18.636;2023-01-15T06:34:19;97371.70;;;8.96;77.79
56992;BME280;42885;49.754;18.636;2023-01-15T06:36:50;97366.94;;;9.08;76.25
56992;BME280;42885;49.754;18.636;2023-01-15T06:43:22;97356.24;;;9.19;74.40
56992;BME280;42885;49.754;18.636;2023-01-15T06:46:12;97377.67;;;9.17;74.20
56992;BME280;42885;49.754;18.636;2023-01-15T06:52:23;97374.61;;;9.17;73.10
56992;BME280;42885;49.754;18.636;2023-01-15T06:58:58;97364.91;;;9.06;73.37
56992;BME280;42885;49.754;18.636;2023-01-15T07:04:47;97388.98;;;8.91;74.48
56992;BME280;42885;49.754;18.636;2023-01-15T07:07:21;97396.86;;;8.97;73.55
56992;BME280;42885;49.754;18.636;2023-01-15T07:09:54;97387.00;;;8.95;73.66
56992;BME280;42885;49.754;18.636;2023-01-15T07:13:04;97385.95;;;8.72;74.97
56992;BME280;42885;49.754;18.636;2023-01-15T07:15:44;97382.41;;;8.73;75.56
56992;BME280;42885;49.754;18.636;2023-01-15T07:22:05;97380.30;;;8.78;75.03
56992;BME280;42885;49.754;18.636;2023-01-15T07:24:39;97387.77;;;8.90;73.81
56992;BME280;42885;49.754;18.636;2023-01-15T07:27:12;97380.11;;;9.07;71.21
56992;BME280;42885;49.754;18.636;2023-01-15T07:30:07;97383.91;;;9.21;69.12
56992;BME280;42885;49.754;18.636;2023-01-15T07:32:39;97383.14;;;9.32;68.62
56992;BME280;42885;49.754;18.636;2023-01-15T07:35:09;97380.51;;;9.45;65.89
56992;BME280;42885;49.754;18.636;2023-01-15T07:37:40;97387.17;;;9.44;64.88
56992;BME280;42885;49.754;18.636;2023-01-15T07:40:34;97396.44;;;9.48;65.22
56992;BME280;42885;49.754;18.636;2023-01-15T07:51:28;97384.33;;;9.47;64.31
56992;BME280;42885;49.754;18.636;2023-01-15T07:58:30;97403.30;;;9.62;63.33
56992;BME280;42885;49.754;18.636;2023-01-15T08:01:03;97384.78;;;9.59;63.71
56992;BME280;42885;49.754;18.636;2023-01-15T08:03:47;97381.19;;;9.55;63.58
56992;BME280;42885;49.754;18.636;2023-01-15T08:06:21;97388.73;;;9.65;63.26
56992;BME280;42885;49.754;18.636;2023-01-15T08:09:09;97375.11;;;9.73;61.66
56992;BME280;42885;49.754;18.636;2023-01-15T08:11:57;97379.52;;;9.72;62.17
56992;BME280;42885;49.754;18.636;2023-01-15T08:19:37;97367.56;;;9.81;60.67
56992;BME280;42885;49.754;18.636;2023-01-15T08:22:17;97362.08;;;9.78;59.90
56992;BME280;42885;49.754;18.636;2023-01-15T08:28:04;97371.13;;;9.80;59.66
56992;BME280;42885;49.754;18.636;2023-01-15T08:30:45;97366.59;;;9.76;60.88
56992;BME280;42885;49.754;18.636;2023-01-15T08:33:17;97371.45;;;9.75;60.13
56992;BME280;42885;49.754;18.636;2023-01-15T08:35:50;97376.91;;;9.97;59.64
56992;BME280;42885;49.754;18.636;2023-01-15T08:43:12;97357.30;;;9.97;58.88
56992;BME280;42885;49.754;18.636;2023-01-15T08:45:44;97356.77;;;10.04;59.01
56992;BME280;42885;49.754;18.636;2023-01-15T08:48:14;97338.77;;;10.00;58.99
56992;BME280;42885;49.754;18.636;2023-01-15T08:50:46;97343.28;;;9.98;59.53
56992;BME280;42885;49.754;18.636;2023-01-15T08:53:17;97335.13;;;10.08;60.38
56992;BME280;42885;49.754;18.636;2023-01-15T08:55:48;97341.37;;;10.18;58.58
56992;BME280;42885;49.754;18.636;2023-01-15T08:58:20;97343.49;;;10.19;58.69
56992;BME280;42885;49.754;18.636;2023-01-15T09:00:51;97334.51;;;10.35;57.21
56992;BME280;42885;49.754;18.636;2023-01-15T09:03:23;97336.72;;;10.46;56.75
56992;BME280;42885;49.754;18.636;2023-01-15T09:05:56;97327.31;;;10.50;55.78
56992;BME280;42885;49.754;18.636;2023-01-15T09:08:27;97342.11;;;10.68;55.70
56992;BME280;42885;49.754;18.636;2023-01-15T09:10:59;97340.34;;;10.80;54.75
56992;BME280;42885;49.754;18.636;2023-01-15T09:13:31;97344.16;;;10.81;54.63
56992;BME280;42885;49.754;18.636;2023-01-15T09:16:03;97336.27;;;10.64;54.39
56992;BME280;42885;49.754;18.636;2023-01-15T09:18:37;97339.50;;;10.73;54.25
56992;BME280;42885;49.754;18.636;2023-01-15T09:25:03;97337.63;;;11.10;54.04
56992;BME280;42885;49.754;18.636;2023-01-15T09:27:35;97323.44;;;10.67;54.74
56992;BME280;42885;49.754;18.636;2023-01-15T09:37:38;97304.16;;;10.51;55.96
56992;BME280;42885;49.754;18.636;2023-01-15T09:57:53;97266.80;;;10.49;56.96
56992;BME280;42885;49.754;18.636;2023-01-15T10:00:27;97272.63;;;10.46;57.48
56992;BME280;42885;49.754;18.636;2023-01-15T10:03:34;97253.97;;;10.45;58.47
56992;BME280;42885;49.754;18.636;2023-01-15T10:06:34;97252.13;;;10.29;59.25
56992;BME280;42885;49.754;18.636;2023-01-15T10:09:11;97258.30;;;10.22;60.58
56992;BME280;42885;49.754;18.636;2023-01-15T10:12:01;97237.09;;;10.02;60.54
56992;BME280;42885;49.754;18.636;2023-01-15T10:15:24;97238.38;;;9.91;61.14
56992;BME280;42885;49.754;18.636;2023-01-15T10:17:58;97229.16;;;10.15;61.24
56992;BME280;42885;49.754;18.636;2023-01-15T10:20:58;97221.29;;;9.98;62.88
56992;BME280;42885;49.754;18.636;2023-01-15T10:23:44;97222.98;;;9.75;63.44
56992;BME280;42885;49.754;18.636;2023-01-15T10:29:41;97240.42;;;9.63;65.00
56992;BME280;42885;49.754;18.636;2023-01-15T10:32:22;97224.78;;;9.50;65.76
56992;BME280;42885;49.754;18.636;2023-01-15T10:35:38;97213.14;;;9.43;68.06
56992;BME280;42885;49.754;18.636;2023-01-15T10:38:31;97210.98;;;9.42;68.25
56992;BME280;42885;49.754;18.636;2023-01-15T10:44:19;97230.53;;;9.31;70.45
56992;BME280;42885;49.754;18.636;2023-01-15T10:46:57;97230.66;;;9.35;70.47
56992;BME280;42885;49.754;18.636;2023-01-15T10:49:29;97217.59;;;9.35;69.86
56992;BME280;42885;49.754;18.636;2023-01-15T10:52:11;97235.44;;;9.41;70.71
56992;BME280;42885;49.754;18.636;2023-01-15T10:54:46;97215.86;;;9.41;70.91
56992;BME280;42885;49.754;18.636;2023-01-15T11:01:29;97236.13;;;9.38;73.21
56992;BME280;42885;49.754;18.636;2023-01-15T11:04:00;97212.02;;;9.34;73.56
56992;BME280;42885;49.754;18.636;2023-01-15T11:06:31;97212.27;;;9.36;73.92
56992;BME280;42885;49.754;18.636;2023-01-15T11:13:23;97202.31;;;9.42;75.02
56992;BME280;42885;49.754;18.636;2023-01-15T11:16:17;97184.43;;;9.24;78.15
56992;BME280;42885;49.754;18.636;2023-01-15T11:19:03;97163.88;;;9.19;77.07
56992;BME280;42885;49.754;18.636;2023-01-15T11:21:54;97164.22;;;9.15;77.61
56992;BME280;42885;49.754;18.636;2023-01-15T11:24:27;97159.23;;;9.12;78.27
56992;BME280;42885;49.754;18.636;2023-01-15T11:26:59;97157.00;;;9.18;79.46
56992;BME280;42885;49.754;18.636;2023-01-15T11:29:33;97142.28;;;9.17;79.42
56992;BME280;42885;49.754;18.636;2023-01-15T11:35:02;97125.63;;;9.07;80.63
56992;BME280;42885;49.754;18.636;2023-01-15T11:37:47;97122.95;;;9.20;80.82
56992;BME280;42885;49.754;18.636;2023-01-15T11:44:23;97152.74;;;9.23;81.22
56992;BME280;42885;49.754;18.636;2023-01-15T11:47:13;97145.20;;;9.37;81.56
56992;BME280;42885;49.754;18.636;2023-01-15T11:50:17;97139.37;;;9.33;82.16
56992;BME280;42885;49.754;18.636;2023-01-15T11:53:13;97133.94;;;9.36;81.71
56992;BME280;42885;49.754;18.636;2023-01-15T11:56:08;97137.98;;;9.41;81.94
56992;BME280;42885;49.754;18.636;2023-01-15T11:59:08;97147.80;;;9.31;83.44
56992;BME280;42885;49.754;18.636;2023-01-15T12:02:17;97142.28;;;9.17;84.87
56992;BME280;42885;49.754;18.636;2023-01-15T12:05:12;97137.67;;;9.21;85.08
56992;BME280;42885;49.754;18.636;2023-01-15T12:07:40;97145.33;;;9.11;87.03
56992;BME280;42885;49.754;18.636;2023-01-15T12:10:38;97140.80;;;9.07;87.88
56992;BME280;42885;49.754;18.636;2023-01-15T12:13:41;97150.41;;;9.01;89.16
56992;BME280;42885;49.754;18.636;2023-01-15T12:16:15;97127.56;;;8.92;90.08
56992;BME280;42885;49.754;18.636;2023-01-15T12:19:00;97143.94;;;8.88;91.51
56992;BME280;42885;49.754;18.636;2023-01-15T12:35:06;97116.33;;;8.97;94.48
56992;BME280;42885;49.754;18.636;2023-01-15T12:37:44;97130.45;;;9.00;94.69
56992;BME280;42885;49.754;18.636;2023-01-15T12:42:58;97127.36;;;8.95;96.68
56992;BME280;42885;49.754;18.636;2023-01-15T12:45:50;97122.14;;;8.95;97.06
56992;BME280;42885;49.754;18.636;2023-01-15T12:51:00;97113.76;;;9.08;97.05
56992;BME280;42885;49.754;18.636;2023-01-15T12:53:40;97109.12;;;9.06;98.32
56992;BME280;42885;49.754;18.636;2023-01-15T12:57:04;97102.84;;;9.03;98.70
56992;BME280;42885;49.754;18.636;2023-01-15T12:59:42;97096.63;;;8.93;98.98
56992;BME280;42885;49.754;18.636;2023-01-15T13:05:57;97078.70;;;8.88;100.00
56992;BME280;42885;49.754;18.636;2023-01-15T13:12:24;97070.73;;;8.84;100.00
56992;BME280;42885;49.754;18.636;2023-01-15T13:14:58;97080.08;;;9.11;99.47
56992;BME280;42885;49.754;18.636;2023-01-15T13:23:08;97084.90;;;8.74;100.00
56992;BME280;42885;49.754;18.636;2023-01-15T13:33:46;97086.36;;;8.78;100.00
56992;BME280;42885;49.754;18.636;2023-01-15T13:36:29;97083.85;;;8.77;100.00
56992;BME280;42885;49.754;18.636;2023-01-15T13:39:02;97080.80;;;8.83;100.00
56992;BME280;42885;49.754;18.636;2023-01-15T13:41:35;97089.89;;;8.72;100.00
56992;BME280;42885;49.754;18.636;2023-01-15T13:44:29;97071.83;;;8.68;100.00
56992;BME280;42885;49.754;18.636;2023-01-15T13:47:05;97080.14;;;8.68;100.00
56992;BME280;42885;49.754;18.636;2023-01-15T13:49:39;97079.63;;;8.63;100.00
56992;BME280;42885;49.754;18.636;2023-01-15T13:52:23;97082.83;;;8.61;100.00
56992;BME280;42885;49.754;18.636;2023-01-15T13:54:51;97084.67;;;8.72;100.00
56992;BME280;42885;49.754;18.636;2023-01-15T13:57:33;97080.27;;;8.72;100.00
56992;BME280;42885;49.754;18.636;2023-01-15T14:00:06;97084.67;;;8.72;100.00
56992;BME280;42885;49.754;18.636;2023-01-15T14:02:39;97104.59;;;8.73;100.00
56992;BME280;42885;49.754;18.636;2023-01-15T14:07:58;97070.70;;;8.78;100.00
56992;BME280;42885;49.754;18.636;2023-01-15T14:10:36;97070.27;;;8.66;100.00
56992;BME280;42885;49.754;18.636;2023-01-15T14:27:25;97104.66;;;8.65;100.00
56992;BME280;42885;49.754;18.636;2023-01-15T14:30:12;97105.71;;;8.63;100.00
56992;BME280;42885;49.754;18.636;2023-01-15T14:35:26;97096.61;;;8.68;100.00
56992;BME280;42885;49.754;18.636;2023-01-15T14:38:02;97089.73;;;8.67;100.00
56992;BME280;42885;49.754;18.636;2023-01-15T14:40:32;97086.28;;;8.67;100.00
56992;BME280;42885;49.754;18.636;2023-01-15T14:43:09;97079.76;;;8.67;100.00
56992;BME280;42885;49.754;18.636;2023-01-15T14:45:42;97074.03;;;8.56;100.00
56992;BME280;42885;49.754;18.636;2023-01-15T14:51:14;97080.10;;;8.49;100.00
56992;BME280;42885;49.754;18.636;2023-01-15T14:53:50;97075.08;;;8.53;100.00
56992;BME280;42885;49.754;18.636;2023-01-15T14:59:36;97093.23;;;8.55;100.00
56992;BME280;42885;49.754;18.636;2023-01-15T15:02:12;97084.20;;;8.53;100.00
56992;BME280;42885;49.754;18.636;2023-01-15T15:04:50;97085.67;;;8.50;100.00
56992;BME280;42885;49.754;18.636;2023-01-15T15:07:24;97090.08;;;8.50;100.00
56992;BME280;42885;49.754;18.636;2023-01-15T15:13:01;97088.38;;;8.43;100.00
56992;BME280;42885;49.754;18.636;2023-01-15T15:16:02;97087.80;;;8.45;100.00
56992;BME280;42885;49.754;18.636;2023-01-15T15:18:37;97084.60;;;8.47;100.00
56992;BME280;42885;49.754;18.636;2023-01-15T15:24:01;97071.17;;;8.53;100.00
56992;BME280;42885;49.754;18.636;2023-01-15T15:26:34;97079.64;;;8.50;100.00
56992;BME280;42885;49.754;18.636;2023-01-15T15:29:05;97073.36;;;8.47;100.00
56992;BME280;42885;49.754;18.636;2023-01-15T15:31:40;97073.16;;;8.74;100.00
56992;BME280;42885;49.754;18.636;2023-01-15T15:34:23;97080.30;;;8.53;100.00
56992;BME280;42885;49.754;18.636;2023-01-15T15:36:58;97081.59;;;8.53;100.00
56992;BME280;42885;49.754;18.636;2023-01-15T15:39:44;97077.95;;;8.43;100.00
56992;BME280;42885;49.754;18.636;2023-01-15T15:43:04;97073.98;;;8.37;100.00
56992;BME280;42885;49.754;18.636;2023-01-15T15:46:00;97084.31;;;8.39;100.00
56992;BME280;42885;49.754;18.636;2023-01-15T15:48:55;97105.13;;;8.33;100.00
56992;BME280;42885;49.754;18.636;2023-01-15T15:51:50;97109.50;;;8.33;100.00
56992;BME280;42885;49.754;18.636;2023-01-15T15:54:23;97091.91;;;8.42;100.00
56992;BME280;42885;49.754;18.636;2023-01-15T15:57:09;97101.78;;;8.44;100.00
56992;BME280;42885;49.754;18.636;2023-01-15T15:59:48;97113.84;;;8.39;100.00
56992;BME280;42885;49.754;18.636;2023-01-15T16:05:00;97116.20;;;8.24;100.00
56992;BME280;42885;49.754;18.636;2023-01-15T16:07:33;97123.20;;;8.10;100.00
56992;BME280;42885;49.754;18.636;2023-01-15T16:10:30;97124.86;;;8.11;100.00
56992;BME280;42885;49.754;18.636;2023-01-15T16:13:35;97133.83;;;8.20;100.00
56992;BME280;42885;49.754;18.636;2023-01-15T16:16:07;97141.61;;;8.15;100.00
56992;BME280;42885;49.754;18.636;2023-01-15T16:18:50;97150.19;;;8.22;100.00
56992;BME280;42885;49.754;18.636;2023-01-15T16:21:31;97160.03;;;8.24;100.00
56992;BME280;42885;49.754;18.636;2023-01-15T16:24:03;97156.13;;;8.11;100.00
56992;BME280;42885;49.754;18.636;2023-01-15T16:29:16;97177.34;;;7.99;100.00
56992;BME280;42885;49.754;18.636;2023-01-15T16:31:48;97190.95;;;7.97;100.00
56992;BME280;42885;49.754;18.636;2023-01-15T16:34:30;97204.33;;;7.98;100.00
56992;BME280;42885;49.754;18.636;2023-01-15T16:36:57;97230.93;;;8.04;100.00
56992;BME280;42885;49.754;18.636;2023-01-15T16:39:34;97242.60;;;7.98;100.00
56992;BME280;42885;49.754;18.636;2023-01-15T16:42:04;97249.24;;;7.89;100.00
56992;BME280;42885;49.754;18.636;2023-01-15T16:44:40;97268.08;;;7.80;100.00
56992;BME280;42885;49.754;18.636;2023-01-15T16:47:24;97269.16;;;7.63;100.00
56992;BME280;42885;49.754;18.636;2023-01-15T16:52:51;97300.93;;;7.48;100.00
56992;BME280;42885;49.754;18.636;2023-01-15T16:55:40;97303.86;;;7.63;100.00
56992;BME280;42885;49.754;18.636;2023-01-15T16:58:18;97318.53;;;7.71;100.00
56992;BME280;42885;49.754;18.636;2023-01-15T17:00:53;97332.81;;;7.86;100.00
56992;BME280;42885;49.754;18.636;2023-01-15T17:03:26;97339.48;;;7.90;100.00
56992;BME280;42885;49.754;18.636;2023-01-15T17:06:09;97360.83;;;8.10;100.00
56992;BME280;42885;49.754;18.636;2023-01-15T17:08:36;97360.83;;;8.10;100.00
56992;BME280;42885;49.754;18.636;2023-01-15T17:11:24;97364.84;;;8.01;100.00
56992;BME280;42885;49.754;18.636;2023-01-15T17:14:16;97371.58;;;7.98;100.00
56992;BME280;42885;49.754;18.636;2023-01-15T17:16:42;97382.53;;;7.96;100.00
56992;BME280;42885;49.754;18.636;2023-01-15T17:19:15;97396.34;;;7.91;100.00
56992;BME280;42885;49.754;18.636;2023-01-15T17:21:45;97400.34;;;7.89;100.00
56992;BME280;42885;49.754;18.636;2023-01-15T17:24:16;97413.38;;;8.17;100.00
56992;BME280;42885;49.754;18.636;2023-01-15T17:26:48;97411.33;;;7.87;100.00
56992;BME280;42885;49.754;18.636;2023-01-15T17:29:19;97420.36;;;7.89;100.00
56992;BME280;42885;49.754;18.636;2023-01-15T17:31:50;97424.30;;;7.60;100.00
56992;BME280;42885;49.754;18.636;2023-01-15T17:34:21;97421.26;;;7.46;100.00
56992;BME280;42885;49.754;18.636;2023-01-15T17:36:53;97427.56;;;7.41;100.00
56992;BME280;42885;49.754;18.636;2023-01-15T17:39:24;97439.28;;;7.34;100.00
56992;BME280;42885;49.754;18.636;2023-01-15T17:41:56;97442.37;;;7.41;100.00
56992;BME280;42885;49.754;18.636;2023-01-15T17:44:27;97443.30;;;7.40;100.00
56992;BME280;42885;49.754;18.636;2023-01-15T17:46:58;97445.34;;;7.42;100.00